Carnival Victory — 3FFL8 — position and weather

sailwx.info

Track history (hours):
 
Tides and Currents Weather Stations Pressure Air Temp Water Temp Dewpoint Dewpoint Depression Visibility Wind Speed Wind Dir Waves Ship Positions

Carnival Victory

Operator: Carnival Cruise Lines

Last reported at 2015-Apr-28 11:00 UTC. Time now 2015-Apr-28 19:50 UTC.
Position N 22°18' W 077°42'.

Type: Ship. MMSI: 355263000.

Wind from 120 at 4 knots

Barometer 1016.0 mb
Air temperature 26.0 ° C
Dewpoint 26.0 ° C
Water temperature 27.4 ° C

Date/timePositionNaut miles runAvg speedWind from/ knotsBaromVisibWave heightAir tempDewpointWater temp
2015-Apr-28 11:00N 22°18' W 077°42'13919.8 120 / 41016.0 26.026.027.4
2015-Apr-28 04:00N 24°00' W 079°24'3019.5 050 / 41010.0 5.4 26.023.029.0
2015-Apr-28 02:28N 24°29' W 079°32'1919.7
2015-Apr-28 01:31N 24°47' W 079°39'2218.6
2015-Apr-28 00:20N 25°07' W 079°47'1317.2
2015-Apr-27 23:33N 25°20' W 079°51'1816.7
2015-Apr-27 22:29N 25°37' W 079°58'1112.3
2015-Apr-27 21:33N 25°46' W 080°06'4 3.3
2015-Apr-27 20:26N 25°47' W 080°10'0 0.0
2015-Apr-27 19:29N 25°47' W 080°10'0 0.0
2015-Apr-27 18:32N 25°47' W 080°10'0 0.0
2015-Apr-27 17:32N 25°47' W 080°10'0 0.0
2015-Apr-27 16:29N 25°47' W 080°10'0 0.0
2015-Apr-27 15:32N 25°47' W 080°10'0 0.0
2015-Apr-27 14:32N 25°47' W 080°10'0 0.0
2015-Apr-27 13:32N 25°47' W 080°10'0 0.0
2015-Apr-27 12:32N 25°47' W 080°10'0 0.0
2015-Apr-27 11:24N 25°47' W 080°10'1 1.5
2015-Apr-27 10:33N 25°46' W 080°09'9 9.4
2015-Apr-27 09:33N 25°43' W 079°59'1313.3
2015-Apr-27 08:33N 25°29' W 079°57'1615.1
2015-Apr-27 07:30N 25°14' W 079°58'1615.3
2015-Apr-27 06:27N 24°58' W 080°02'1314.9
2015-Apr-27 05:34N 24°45' W 080°06'2214.1
2015-Apr-27 04:00N 24°30' W 080°24'43717.9 260 / 101009.010.8 26.023.027.9
2015-Apr-26 03:33N 20°29' W 086°59'1 0.8
2015-Apr-26 02:31N 20°29' W 086°59'0 0.0
2015-Apr-26 01:31N 20°29' W 086°59'0 0.0
2015-Apr-26 00:31N 20°29' W 086°59'22110.7
2015-Apr-25 04:00N 23°00' W 084°06'204 8.7 070 / 121015.010.8 26.023.028.5
2015-Apr-24 04:31N 24°33' W 080°48'1120.4
2015-Apr-24 04:00N 24°30' W 080°36'1011.2 080 / 61015.010.8 26.023.029.0
2015-Apr-24 03:05N 24°35' W 080°26'4713.2
2015-Apr-23 23:33N 25°16' W 080°02'1413.7
2015-Apr-23 22:33N 25°30' W 080°01'1413.4
2015-Apr-23 21:33N 25°43' W 080°03'7 7.2
2015-Apr-23 20:33N 25°47' W 080°10'0 0.1
2015-Apr-23 19:26N 25°47' W 080°10'0 0.0
2015-Apr-23 18:26N 25°47' W 080°10'0 0.0
2015-Apr-23 17:29N 25°47' W 080°10'0 0.0
2015-Apr-23 16:29N 25°47' W 080°10'0 0.0
2015-Apr-23 15:32N 25°47' W 080°10'0 0.0
2015-Apr-23 14:32N 25°47' W 080°10'0 0.0
2015-Apr-23 13:32N 25°47' W 080°10'0 0.0
2015-Apr-23 12:32N 25°47' W 080°10'0 0.0
2015-Apr-23 11:20N 25°47' W 080°10'1 1.3
2015-Apr-23 10:33N 25°46' W 080°09'9 9.4
2015-Apr-23 09:33N 25°48' W 079°59'1110.9
2015-Apr-23 08:33N 25°54' W 079°49'1312.5
2015-Apr-23 07:33N 26°01' W 079°37'1514.9
2015-Apr-23 06:33N 26°09' W 079°23'42716.1
2015-Apr-22 04:00N 22°48' W 072°30'62 3.6 090 / 91015.010.8 26.023.027.8
2015-Apr-21 11:00N 22°00' W 071°48'13118.7 120 / 151016.0 1.028.028.027.4
2015-Apr-21 04:00N 23°00' W 073°54'207 8.6 110 / 191015.010.8 26.023.027.6
2015-Apr-20 04:00N 25°36' W 076°24'124 5.2 110 / 81015.010.8 26.023.027.0
2015-Apr-19 04:00N 26°12' W 078°36'2313.6 130 / 101015.010.8 26.023.028.0
2015-Apr-19 02:19N 26°15' W 079°01'1213.0
2015-Apr-19 01:25N 26°14' W 079°14'2714.6
2015-Apr-18 23:33N 25°60' W 079°40'1515.2
2015-Apr-18 22:33N 25°52' W 079°54'15 1.4
2015-Apr-18 11:11N 25°47' W 080°10'  
Track history (hours):
 
Tides and Currents Weather Stations Pressure Air Temp Water Temp Dewpoint Dewpoint Depression Visibility Wind Speed Wind Dir Waves Ship Positions

Carnival Victory

Operator: Carnival Cruise Lines

Last reported at 2015-Apr-28 11:00 UTC. Time now 2015-Apr-28 19:50 UTC.
Position N 22°18' W 077°42'.

Type: Ship. MMSI: 355263000.

Wind from 120 at 4 knots

Barometer 1016.0 mb
Air temperature 26.0 ° C
Dewpoint 26.0 ° C
Water temperature 27.4 ° C

Date/timePositionNaut miles runAvg speedWind from/ knotsBaromVisibWave heightAir tempDewpointWater temp
2015-Apr-28 11:00N 22°18' W 077°42'13919.8 120 / 41016.0 26.026.027.4
2015-Apr-28 04:00N 24°00' W 079°24'3019.5 050 / 41010.0 5.4 26.023.029.0
2015-Apr-28 02:28N 24°29' W 079°32'1919.7
2015-Apr-28 01:31N 24°47' W 079°39'2218.6
2015-Apr-28 00:20N 25°07' W 079°47'1317.2
2015-Apr-27 23:33N 25°20' W 079°51'1816.7
2015-Apr-27 22:29N 25°37' W 079°58'1112.3
2015-Apr-27 21:33N 25°46' W 080°06'4 3.3
2015-Apr-27 20:26N 25°47' W 080°10'0 0.0
2015-Apr-27 19:29N 25°47' W 080°10'0 0.0
2015-Apr-27 18:32N 25°47' W 080°10'0 0.0
2015-Apr-27 17:32N 25°47' W 080°10'0 0.0
2015-Apr-27 16:29N 25°47' W 080°10'0 0.0
2015-Apr-27 15:32N 25°47' W 080°10'0 0.0
2015-Apr-27 14:32N 25°47' W 080°10'0 0.0
2015-Apr-27 13:32N 25°47' W 080°10'0 0.0
2015-Apr-27 12:32N 25°47' W 080°10'0 0.0
2015-Apr-27 11:24N 25°47' W 080°10'1 1.5
2015-Apr-27 10:33N 25°46' W 080°09'9 9.4
2015-Apr-27 09:33N 25°43' W 079°59'1313.3
2015-Apr-27 08:33N 25°29' W 079°57'1615.1
2015-Apr-27 07:30N 25°14' W 079°58'1615.3
2015-Apr-27 06:27N 24°58' W 080°02'1314.9
2015-Apr-27 05:34N 24°45' W 080°06'2214.1
2015-Apr-27 04:00N 24°30' W 080°24'43717.9 260 / 101009.010.8 26.023.027.9
2015-Apr-26 03:33N 20°29' W 086°59'1 0.8
2015-Apr-26 02:31N 20°29' W 086°59'0 0.0
2015-Apr-26 01:31N 20°29' W 086°59'0 0.0
2015-Apr-26 00:31N 20°29' W 086°59'22110.7
2015-Apr-25 04:00N 23°00' W 084°06'204 8.7 070 / 121015.010.8 26.023.028.5
2015-Apr-24 04:31N 24°33' W 080°48'1120.4
2015-Apr-24 04:00N 24°30' W 080°36'1011.2 080 / 61015.010.8 26.023.029.0
2015-Apr-24 03:05N 24°35' W 080°26'4713.2
2015-Apr-23 23:33N 25°16' W 080°02'1413.7
2015-Apr-23 22:33N 25°30' W 080°01'1413.4
2015-Apr-23 21:33N 25°43' W 080°03'7 7.2
2015-Apr-23 20:33N 25°47' W 080°10'0 0.1
2015-Apr-23 19:26N 25°47' W 080°10'0 0.0
2015-Apr-23 18:26N 25°47' W 080°10'0 0.0
2015-Apr-23 17:29N 25°47' W 080°10'0 0.0
2015-Apr-23 16:29N 25°47' W 080°10'0 0.0
2015-Apr-23 15:32N 25°47' W 080°10'0 0.0
2015-Apr-23 14:32N 25°47' W 080°10'0 0.0
2015-Apr-23 13:32N 25°47' W 080°10'0 0.0
2015-Apr-23 12:32N 25°47' W 080°10'0 0.0
2015-Apr-23 11:20N 25°47' W 080°10'1 1.3
2015-Apr-23 10:33N 25°46' W 080°09'9 9.4
2015-Apr-23 09:33N 25°48' W 079°59'1110.9
2015-Apr-23 08:33N 25°54' W 079°49'1312.5
2015-Apr-23 07:33N 26°01' W 079°37'1514.9
2015-Apr-23 06:33N 26°09' W 079°23'42716.1
2015-Apr-22 04:00N 22°48' W 072°30'62 3.6 090 / 91015.010.8 26.023.027.8
2015-Apr-21 11:00N 22°00' W 071°48'13118.7 120 / 151016.0 1.028.028.027.4
2015-Apr-21 04:00N 23°00' W 073°54'207 8.6 110 / 191015.010.8 26.023.027.6
2015-Apr-20 04:00N 25°36' W 076°24'124 5.2 110 / 81015.010.8 26.023.027.0
2015-Apr-19 04:00N 26°12' W 078°36'2313.6 130 / 101015.010.8 26.023.028.0
2015-Apr-19 02:19N 26°15' W 079°01'1213.0
2015-Apr-19 01:25N 26°14' W 079°14'2714.6
2015-Apr-18 23:33N 25°60' W 079°40'1515.2
2015-Apr-18 22:33N 25°52' W 079°54'15 1.4
2015-Apr-18 11:11N 25°47' W 080°10'  

Dump ship's entire track history